sensor_id;sensor_type;location;lat;lon;timestamp;pressure;altitude;pressure_sealevel;temperature;humidity
13954;BME280;7049;49.444;8.522;2023-02-02T00:01:08;78902.16;;;-3.47;82.23
13954;BME280;7049;49.444;8.522;2023-02-02T00:06:09;78904.22;;;-3.47;82.75
13954;BME280;7049;49.444;8.522;2023-02-02T00:11:13;78900.06;;;-3.47;83.09
13954;BME280;7049;49.444;8.522;2023-02-02T00:16:40;78893.78;;;-3.47;83.52
13954;BME280;7049;49.444;8.522;2023-02-02T00:21:42;78893.78;;;-3.47;83.50
13954;BME280;7049;49.444;8.522;2023-02-02T00:26:48;78908.41;;;-3.47;84.17
13954;BME280;7049;49.444;8.522;2023-02-02T00:31:50;78893.78;;;-3.47;84.74
13954;BME280;7049;49.444;8.522;2023-02-02T00:36:52;78891.69;;;-3.47;84.42
13954;BME280;7049;49.444;8.522;2023-02-02T00:41:54;78897.97;;;-3.47;84.54
13954;BME280;7049;49.444;8.522;2023-02-02T00:46:56;78893.78;;;-3.47;84.64
13954;BME280;7049;49.444;8.522;2023-02-02T00:51:57;78906.31;;;-3.47;85.27
13954;BME280;7049;49.444;8.522;2023-02-02T00:57:00;78914.69;;;-3.47;85.18
13954;BME280;7049;49.444;8.522;2023-02-02T01:02:02;78912.59;;;-3.47;85.65
13954;BME280;7049;49.444;8.522;2023-02-02T01:07:03;78902.16;;;-3.47;85.56
13954;BME280;7049;49.444;8.522;2023-02-02T01:12:06;78904.22;;;-3.47;85.58
13954;BME280;7049;49.444;8.522;2023-02-02T01:17:08;78910.50;;;-3.47;86.01
13954;BME280;7049;49.444;8.522;2023-02-02T01:22:09;78910.50;;;-3.47;85.69
13954;BME280;7049;49.444;8.522;2023-02-02T01:27:12;78906.31;;;-3.47;85.42
13954;BME280;7049;49.444;8.522;2023-02-02T01:32:14;78891.69;;;-3.47;84.82
13954;BME280;7049;49.444;8.522;2023-02-02T01:37:15;78895.88;;;-3.47;84.88
13954;BME280;7049;49.444;8.522;2023-02-02T01:42:21;78893.78;;;-3.47;85.02
13954;BME280;7049;49.444;8.522;2023-02-02T01:47:25;78883.31;;;-3.47;84.91
13954;BME280;7049;49.444;8.522;2023-02-02T01:52:29;78872.84;;;-3.47;84.48
13954;BME280;7049;49.444;8.522;2023-02-02T01:57:37;78883.31;;;-3.47;84.92
13954;BME280;7049;49.444;8.522;2023-02-02T02:02:43;78879.13;;;-3.47;84.75
13954;BME280;7049;49.444;8.522;2023-02-02T02:07:47;78881.22;;;-3.47;85.39
13954;BME280;7049;49.444;8.522;2023-02-02T02:12:51;78895.88;;;-3.47;85.38
13954;BME280;7049;49.444;8.522;2023-02-02T02:18:00;78879.13;;;-3.47;84.86
13954;BME280;7049;49.444;8.522;2023-02-02T02:23:33;78877.03;;;-3.47;85.47
13954;BME280;7049;49.444;8.522;2023-02-02T02:34:48;78868.66;;;-3.47;84.99
13954;BME280;7049;49.444;8.522;2023-02-02T02:39:56;78872.84;;;-3.47;85.13
13954;BME280;7049;49.444;8.522;2023-02-02T02:45:00;78881.22;;;-3.47;85.23
13954;BME280;7049;49.444;8.522;2023-02-02T02:50:04;78874.94;;;-3.47;85.34
13954;BME280;7049;49.444;8.522;2023-02-02T02:55:07;78877.03;;;-3.47;85.66
13954;BME280;7049;49.444;8.522;2023-02-02T03:00:26;78872.84;;;-3.47;85.60
13954;BME280;7049;49.444;8.522;2023-02-02T03:05:37;78870.75;;;-3.47;85.51
13954;BME280;7049;49.444;8.522;2023-02-02T03:10:45;78870.75;;;-3.47;85.93
13954;BME280;7049;49.444;8.522;2023-02-02T03:15:47;78881.22;;;-3.47;85.66
13954;BME280;7049;49.444;8.522;2023-02-02T03:20:49;78872.84;;;-3.47;87.24
13954;BME280;7049;49.444;8.522;2023-02-02T03:25:51;78893.78;;;-3.47;88.21
13954;BME280;7049;49.444;8.522;2023-02-02T03:30:53;78879.13;;;-3.47;87.66
13954;BME280;7049;49.444;8.522;2023-02-02T03:35:56;78883.31;;;-3.47;88.11
13954;BME280;7049;49.444;8.522;2023-02-02T03:40:58;78889.59;;;-3.47;88.44
13954;BME280;7049;49.444;8.522;2023-02-02T03:46:02;78889.59;;;-3.47;88.36
13954;BME280;7049;49.444;8.522;2023-02-02T03:51:06;78885.41;;;-3.47;88.08
13954;BME280;7049;49.444;8.522;2023-02-02T03:56:08;78883.31;;;-3.47;88.40
13954;BME280;7049;49.444;8.522;2023-02-02T04:01:10;78885.41;;;-3.47;88.40
13954;BME280;7049;49.444;8.522;2023-02-02T04:06:13;78883.31;;;-3.47;87.76
13954;BME280;7049;49.444;8.522;2023-02-02T04:11:15;78893.78;;;-3.47;87.81
13954;BME280;7049;49.444;8.522;2023-02-02T04:16:16;78914.69;;;-3.47;88.49
13954;BME280;7049;49.444;8.522;2023-02-02T04:21:19;78910.50;;;-3.47;87.43
13954;BME280;7049;49.444;8.522;2023-02-02T04:26:21;78914.69;;;-3.47;87.40
13954;BME280;7049;49.444;8.522;2023-02-02T04:31:24;78906.31;;;-3.47;87.54
13954;BME280;7049;49.444;8.522;2023-02-02T04:36:27;78918.88;;;-3.47;87.81
13954;BME280;7049;49.444;8.522;2023-02-02T04:41:29;78916.78;;;-3.47;88.02
13954;BME280;7049;49.444;8.522;2023-02-02T04:46:30;78914.69;;;-3.47;88.08
13954;BME280;7049;49.444;8.522;2023-02-02T04:51:33;78914.69;;;-3.47;87.05
13954;BME280;7049;49.444;8.522;2023-02-02T04:56:35;78910.50;;;-3.47;86.92
13954;BME280;7049;49.444;8.522;2023-02-02T05:01:36;78916.78;;;-3.47;86.42
13954;BME280;7049;49.444;8.522;2023-02-02T05:06:39;78912.59;;;-3.47;86.62
13954;BME280;7049;49.444;8.522;2023-02-02T05:11:40;78916.78;;;-3.47;86.13
13954;BME280;7049;49.444;8.522;2023-02-02T05:16:43;78923.06;;;-3.47;86.07
13954;BME280;7049;49.444;8.522;2023-02-02T05:21:46;78914.69;;;-3.47;85.49
13954;BME280;7049;49.444;8.522;2023-02-02T05:26:49;78935.63;;;-3.47;86.13
13954;BME280;7049;49.444;8.522;2023-02-02T05:31:52;78923.06;;;-3.47;86.27
13954;BME280;7049;49.444;8.522;2023-02-02T05:36:54;78933.53;;;-3.47;86.08
13954;BME280;7049;49.444;8.522;2023-02-02T05:41:56;78935.63;;;-3.47;86.11
13954;BME280;7049;49.444;8.522;2023-02-02T05:47:00;78937.72;;;-3.47;85.88
13954;BME280;7049;49.444;8.522;2023-02-02T05:52:03;78937.72;;;-3.47;85.95
13954;BME280;7049;49.444;8.522;2023-02-02T05:57:09;78944.00;;;-3.47;85.45
13954;BME280;7049;49.444;8.522;2023-02-02T06:02:10;78944.00;;;-3.47;85.52
13954;BME280;7049;49.444;8.522;2023-02-02T06:07:13;78944.00;;;-3.47;85.88
13954;BME280;7049;49.444;8.522;2023-02-02T06:12:14;78941.91;;;-3.47;85.79
13954;BME280;7049;49.444;8.522;2023-02-02T06:17:17;78950.28;;;-3.47;86.40
13954;BME280;7049;49.444;8.522;2023-02-02T06:22:20;78948.19;;;-3.47;86.16
13954;BME280;7049;49.444;8.522;2023-02-02T06:27:22;78958.66;;;-3.47;86.82
13954;BME280;7049;49.444;8.522;2023-02-02T06:32:23;78964.94;;;-3.47;87.11
13954;BME280;7049;49.444;8.522;2023-02-02T06:37:26;78958.66;;;-3.47;86.52
13954;BME280;7049;49.444;8.522;2023-02-02T06:42:27;78952.38;;;-3.47;86.88
13954;BME280;7049;49.444;8.522;2023-02-02T06:47:31;78958.66;;;-3.47;86.64
13954;BME280;7049;49.444;8.522;2023-02-02T06:52:34;78969.13;;;-3.47;87.00
13954;BME280;7049;49.444;8.522;2023-02-02T06:57:35;78969.13;;;-3.47;86.86
13954;BME280;7049;49.444;8.522;2023-02-02T07:02:36;78960.75;;;-3.47;86.46
13954;BME280;7049;49.444;8.522;2023-02-02T07:07:39;78948.19;;;-3.47;86.25
13954;BME280;7049;49.444;8.522;2023-02-02T07:12:41;78958.66;;;-3.47;86.09
13954;BME280;7049;49.444;8.522;2023-02-02T07:17:42;78969.13;;;-3.47;87.17
13954;BME280;7049;49.444;8.522;2023-02-02T07:22:45;78973.31;;;-3.47;87.35
13954;BME280;7049;49.444;8.522;2023-02-02T07:27:51;78960.75;;;-3.47;86.70
13954;BME280;7049;49.444;8.522;2023-02-02T07:32:52;78964.94;;;-3.47;86.11
13954;BME280;7049;49.444;8.522;2023-02-02T07:37:55;78977.50;;;-3.47;86.92
13954;BME280;7049;49.444;8.522;2023-02-02T07:42:57;78969.13;;;-3.47;86.16
13954;BME280;7049;49.444;8.522;2023-02-02T07:48:00;78969.13;;;-3.47;86.43
13954;BME280;7049;49.444;8.522;2023-02-02T07:53:03;78971.22;;;-3.47;86.30
13954;BME280;7049;49.444;8.522;2023-02-02T07:58:04;78977.50;;;-3.47;86.79
13954;BME280;7049;49.444;8.522;2023-02-02T08:03:09;78977.50;;;-3.47;86.74
13954;BME280;7049;49.444;8.522;2023-02-02T08:08:12;78973.31;;;-3.47;86.74
13954;BME280;7049;49.444;8.522;2023-02-02T08:13:13;78971.22;;;-3.47;87.00
13954;BME280;7049;49.444;8.522;2023-02-02T08:18:15;78973.31;;;-3.47;87.12
13954;BME280;7049;49.444;8.522;2023-02-02T08:23:19;78979.59;;;-3.47;87.32
13954;BME280;7049;49.444;8.522;2023-02-02T08:28:22;78981.69;;;-3.47;87.17
13954;BME280;7049;49.444;8.522;2023-02-02T08:33:24;78979.59;;;-3.47;87.21
13954;BME280;7049;49.444;8.522;2023-02-02T08:38:27;78977.50;;;-3.47;87.11
13954;BME280;7049;49.444;8.522;2023-02-02T08:43:28;78985.88;;;-3.47;87.66
13954;BME280;7049;49.444;8.522;2023-02-02T08:48:30;78981.69;;;-3.47;86.40
13954;BME280;7049;49.444;8.522;2023-02-02T08:53:33;78975.41;;;-3.47;86.52
13954;BME280;7049;49.444;8.522;2023-02-02T08:58:34;78971.22;;;-3.47;86.25
13954;BME280;7049;49.444;8.522;2023-02-02T09:03:37;78962.84;;;-3.47;86.27
13954;BME280;7049;49.444;8.522;2023-02-02T09:08:40;78944.00;;;-3.47;84.88
13954;BME280;7049;49.444;8.522;2023-02-02T09:13:43;78927.25;;;-3.47;83.53
13954;BME280;7049;49.444;8.522;2023-02-02T09:18:46;78923.06;;;-3.47;83.55
13954;BME280;7049;49.444;8.522;2023-02-02T09:23:50;78933.53;;;-3.47;83.49
13954;BME280;7049;49.444;8.522;2023-02-02T09:28:54;78925.16;;;-3.47;81.85
13954;BME280;7049;49.444;8.522;2023-02-02T09:33:59;78918.88;;;-3.47;80.54
13954;BME280;7049;49.444;8.522;2023-02-02T09:39:02;78914.69;;;-3.47;79.27
13954;BME280;7049;49.444;8.522;2023-02-02T09:44:11;78910.50;;;-3.47;79.31
13954;BME280;7049;49.444;8.522;2023-02-02T09:49:20;78912.59;;;-3.47;80.18
13954;BME280;7049;49.444;8.522;2023-02-02T09:54:27;78916.78;;;-3.47;79.22
13954;BME280;7049;49.444;8.522;2023-02-02T09:59:34;78918.88;;;-3.47;78.88
13954;BME280;7049;49.444;8.522;2023-02-02T10:04:38;78910.50;;;-3.47;78.10
13954;BME280;7049;49.444;8.522;2023-02-02T10:09:46;78920.97;;;-3.47;78.70
13954;BME280;7049;49.444;8.522;2023-02-02T10:14:53;78916.78;;;-3.47;78.61
13954;BME280;7049;49.444;8.522;2023-02-02T10:20:02;78929.34;;;-3.47;78.86
13954;BME280;7049;49.444;8.522;2023-02-02T10:25:10;78935.63;;;-3.47;78.70
13954;BME280;7049;49.444;8.522;2023-02-02T10:30:17;78941.91;;;-3.47;79.42
13954;BME280;7049;49.444;8.522;2023-02-02T10:35:28;78952.38;;;-3.47;78.06
13954;BME280;7049;49.444;8.522;2023-02-02T10:40:45;78937.72;;;-3.47;77.25
13954;BME280;7049;49.444;8.522;2023-02-02T10:45:50;78950.28;;;-3.47;77.34
13954;BME280;7049;49.444;8.522;2023-02-02T10:50:54;78939.81;;;-3.47;76.63
13954;BME280;7049;49.444;8.522;2023-02-02T10:56:02;78950.28;;;-3.47;76.92
13954;BME280;7049;49.444;8.522;2023-02-02T11:01:07;78950.28;;;-3.47;77.84
13954;BME280;7049;49.444;8.522;2023-02-02T11:06:10;78946.09;;;-3.47;77.34
13954;BME280;7049;49.444;8.522;2023-02-02T11:11:35;78946.09;;;-3.47;77.06
13954;BME280;7049;49.444;8.522;2023-02-02T11:16:40;78933.53;;;-3.47;76.90
13954;BME280;7049;49.444;8.522;2023-02-02T11:21:44;78939.81;;;-3.47;76.88
13954;BME280;7049;49.444;8.522;2023-02-02T11:26:49;78933.53;;;-3.47;77.13
13954;BME280;7049;49.444;8.522;2023-02-02T11:31:53;78929.34;;;-3.47;77.09
13954;BME280;7049;49.444;8.522;2023-02-02T11:37:00;78918.88;;;-3.47;77.38
13954;BME280;7049;49.444;8.522;2023-02-02T11:42:06;78923.06;;;-3.47;77.74
13954;BME280;7049;49.444;8.522;2023-02-02T11:47:20;78914.69;;;-3.47;76.72
13954;BME280;7049;49.444;8.522;2023-02-02T11:52:23;78923.06;;;-3.47;76.97
13954;BME280;7049;49.444;8.522;2023-02-02T11:57:28;78912.59;;;-3.47;77.30
13954;BME280;7049;49.444;8.522;2023-02-02T12:02:30;78910.50;;;-3.47;76.88
13954;BME280;7049;49.444;8.522;2023-02-02T12:07:33;78906.31;;;-3.47;76.60
13954;BME280;7049;49.444;8.522;2023-02-02T12:12:42;78900.06;;;-3.47;76.34
13954;BME280;7049;49.444;8.522;2023-02-02T12:17:46;78906.31;;;-3.47;76.75
13954;BME280;7049;49.444;8.522;2023-02-02T12:23:07;78889.59;;;-3.47;77.30
13954;BME280;7049;49.444;8.522;2023-02-02T12:28:24;78889.59;;;-3.47;76.74
13954;BME280;7049;49.444;8.522;2023-02-02T12:33:32;78872.84;;;-3.47;75.89
13954;BME280;7049;49.444;8.522;2023-02-02T12:38:51;78856.09;;;-3.47;74.93
13954;BME280;7049;49.444;8.522;2023-02-02T12:44:08;78843.53;;;-3.47;75.24
13954;BME280;7049;49.444;8.522;2023-02-02T12:49:22;78843.53;;;-3.47;75.73
13954;BME280;7049;49.444;8.522;2023-02-02T12:54:38;78841.44;;;-3.47;75.60
13954;BME280;7049;49.444;8.522;2023-02-02T13:00:10;78830.97;;;-3.47;74.78
13954;BME280;7049;49.444;8.522;2023-02-02T13:05:28;78818.41;;;-3.47;75.15
13954;BME280;7049;49.444;8.522;2023-02-02T13:10:35;78814.22;;;-3.47;74.38
13954;BME280;7049;49.444;8.522;2023-02-02T13:15:41;78816.31;;;-3.47;74.68
13954;BME280;7049;49.444;8.522;2023-02-02T13:20:47;78799.59;;;-3.47;73.78
13954;BME280;7049;49.444;8.522;2023-02-02T13:25:54;78799.59;;;-3.47;74.09
13954;BME280;7049;49.444;8.522;2023-02-02T13:31:01;78810.03;;;-3.47;74.78
13954;BME280;7049;49.444;8.522;2023-02-02T13:36:08;78795.41;;;-3.47;73.72
13954;BME280;7049;49.444;8.522;2023-02-02T13:41:15;78814.22;;;-3.47;74.96
13954;BME280;7049;49.444;8.522;2023-02-02T13:46:28;78818.41;;;-3.47;74.07
13954;BME280;7049;49.444;8.522;2023-02-02T13:51:39;78818.41;;;-3.47;73.62
13954;BME280;7049;49.444;8.522;2023-02-02T13:56:49;78810.03;;;-3.47;73.86
13954;BME280;7049;49.444;8.522;2023-02-02T14:01:57;78835.16;;;-3.47;75.20
13954;BME280;7049;49.444;8.522;2023-02-02T14:07:02;78822.59;;;-3.47;74.35
13954;BME280;7049;49.444;8.522;2023-02-02T14:12:07;78824.69;;;-3.47;74.40
13954;BME280;7049;49.444;8.522;2023-02-02T14:17:54;78824.69;;;-3.47;74.04
13954;BME280;7049;49.444;8.522;2023-02-02T14:22:56;78849.81;;;-3.47;75.11
13954;BME280;7049;49.444;8.522;2023-02-02T14:27:59;78851.91;;;-3.47;75.40
13954;BME280;7049;49.444;8.522;2023-02-02T14:33:36;78860.28;;;-3.47;74.34
13954;BME280;7049;49.444;8.522;2023-02-02T14:39:02;78872.84;;;-3.47;75.01
13954;BME280;7049;49.444;8.522;2023-02-02T14:44:08;78879.13;;;-3.47;74.27
13954;BME280;7049;49.444;8.522;2023-02-02T14:49:14;78883.31;;;-3.47;74.79
13954;BME280;7049;49.444;8.522;2023-02-02T14:54:23;78910.50;;;-3.47;75.75
13954;BME280;7049;49.444;8.522;2023-02-02T14:59:29;78912.59;;;-3.47;75.89
13954;BME280;7049;49.444;8.522;2023-02-02T15:04:33;78925.16;;;-3.47;75.94
13954;BME280;7049;49.444;8.522;2023-02-02T15:09:36;78933.53;;;-3.47;75.34
13954;BME280;7049;49.444;8.522;2023-02-02T15:14:41;78935.63;;;-3.47;75.15
13954;BME280;7049;49.444;8.522;2023-02-02T15:19:49;78948.19;;;-3.47;75.39
13954;BME280;7049;49.444;8.522;2023-02-02T15:24:57;78952.38;;;-3.47;75.17
13954;BME280;7049;49.444;8.522;2023-02-02T15:30:02;78960.75;;;-3.47;74.54
13954;BME280;7049;49.444;8.522;2023-02-02T15:35:10;78956.56;;;-3.47;74.34
13954;BME280;7049;49.444;8.522;2023-02-02T15:40:20;78973.31;;;-3.47;74.49
13954;BME280;7049;49.444;8.522;2023-02-02T15:45:33;78973.31;;;-3.47;74.07
13954;BME280;7049;49.444;8.522;2023-02-02T15:50:42;78990.06;;;-3.47;74.30
13954;BME280;7049;49.444;8.522;2023-02-02T15:55:45;78990.06;;;-3.47;74.20
13954;BME280;7049;49.444;8.522;2023-02-02T16:00:54;78990.06;;;-3.47;74.30
13954;BME280;7049;49.444;8.522;2023-02-02T16:05:59;79015.19;;;-3.47;74.41
13954;BME280;7049;49.444;8.522;2023-02-02T16:11:03;79015.19;;;-3.47;74.29
13954;BME280;7049;49.444;8.522;2023-02-02T16:16:19;79031.91;;;-3.47;74.17
13954;BME280;7049;49.444;8.522;2023-02-02T16:21:23;79044.47;;;-3.47;73.55
13954;BME280;7049;49.444;8.522;2023-02-02T16:26:28;79057.03;;;-3.47;73.82
13954;BME280;7049;49.444;8.522;2023-02-02T16:31:30;79061.22;;;-3.47;73.84
13954;BME280;7049;49.444;8.522;2023-02-02T16:36:33;79065.41;;;-3.47;73.34
13954;BME280;7049;49.444;8.522;2023-02-02T16:41:35;79073.78;;;-3.47;74.23
13954;BME280;7049;49.444;8.522;2023-02-02T16:46:42;79075.88;;;-3.47;73.84
13954;BME280;7049;49.444;8.522;2023-02-02T16:51:47;79094.72;;;-3.47;74.06
13954;BME280;7049;49.444;8.522;2023-02-02T16:56:50;79077.97;;;-3.47;73.41
13954;BME280;7049;49.444;8.522;2023-02-02T17:02:03;79092.63;;;-3.47;73.32
13954;BME280;7049;49.444;8.522;2023-02-02T17:07:08;79090.53;;;-3.47;73.02
13954;BME280;7049;49.444;8.522;2023-02-02T17:12:22;79105.19;;;-3.47;73.81
13954;BME280;7049;49.444;8.522;2023-02-02T17:17:25;79124.03;;;-3.47;74.52
13954;BME280;7049;49.444;8.522;2023-02-02T17:22:39;79134.50;;;-3.47;74.97
13954;BME280;7049;49.444;8.522;2023-02-02T17:27:41;79136.59;;;-3.47;75.23
13954;BME280;7049;49.444;8.522;2023-02-02T17:32:44;79144.97;;;-3.47;75.50
13954;BME280;7049;49.444;8.522;2023-02-02T17:37:47;79140.75;;;-3.47;75.83
13954;BME280;7049;49.444;8.522;2023-02-02T17:42:50;79165.88;;;-3.47;76.44
13954;BME280;7049;49.444;8.522;2023-02-02T17:47:52;79155.41;;;-3.47;75.79
13954;BME280;7049;49.444;8.522;2023-02-02T17:52:55;79159.59;;;-3.47;76.34
13954;BME280;7049;49.444;8.522;2023-02-02T17:57:56;79165.88;;;-3.47;76.28
13954;BME280;7049;49.444;8.522;2023-02-02T18:03:09;79174.25;;;-3.47;77.03
13954;BME280;7049;49.444;8.522;2023-02-02T18:08:13;79176.34;;;-3.47;76.81
13954;BME280;7049;49.444;8.522;2023-02-02T18:13:17;79172.16;;;-3.47;77.36
13954;BME280;7049;49.444;8.522;2023-02-02T18:18:19;79188.91;;;-3.47;77.53
13954;BME280;7049;49.444;8.522;2023-02-02T18:23:22;79186.81;;;-3.47;78.84
13954;BME280;7049;49.444;8.522;2023-02-02T18:28:23;79191.00;;;-3.47;78.35
13954;BME280;7049;49.444;8.522;2023-02-02T18:33:25;79191.00;;;-3.47;78.56
13954;BME280;7049;49.444;8.522;2023-02-02T18:38:27;79195.19;;;-3.47;78.91
13954;BME280;7049;49.444;8.522;2023-02-02T18:43:29;79188.91;;;-3.47;78.59
13954;BME280;7049;49.444;8.522;2023-02-02T18:48:31;79199.38;;;-3.47;79.23
13954;BME280;7049;49.444;8.522;2023-02-02T18:53:33;79195.19;;;-3.47;79.76
13954;BME280;7049;49.444;8.522;2023-02-02T18:58:35;79195.19;;;-3.47;81.57
13954;BME280;7049;49.444;8.522;2023-02-02T19:03:37;79203.56;;;-3.47;83.04
13954;BME280;7049;49.444;8.522;2023-02-02T19:08:41;79220.31;;;-3.47;84.24
13954;BME280;7049;49.444;8.522;2023-02-02T19:13:43;79249.63;;;-3.47;85.07
13954;BME280;7049;49.444;8.522;2023-02-02T19:18:44;79245.44;;;-3.47;85.73
13954;BME280;7049;49.444;8.522;2023-02-02T19:23:47;79266.38;;;-3.47;85.86
13954;BME280;7049;49.444;8.522;2023-02-02T19:28:49;79278.94;;;-3.47;86.49
13954;BME280;7049;49.444;8.522;2023-02-02T19:33:51;79285.22;;;-3.47;87.06
13954;BME280;7049;49.444;8.522;2023-02-02T19:39:09;79287.31;;;-3.47;87.19
13954;BME280;7049;49.444;8.522;2023-02-02T19:44:17;79304.03;;;-3.47;87.39
13954;BME280;7049;49.444;8.522;2023-02-02T19:49:26;79287.31;;;-3.47;87.42
13954;BME280;7049;49.444;8.522;2023-02-02T19:54:31;79295.66;;;-3.47;86.84
13954;BME280;7049;49.444;8.522;2023-02-02T19:59:34;79299.88;;;-3.47;87.40
13954;BME280;7049;49.444;8.522;2023-02-02T20:04:35;79291.50;;;-3.47;86.93
13954;BME280;7049;49.444;8.522;2023-02-02T20:09:38;79287.31;;;-3.47;87.27
13954;BME280;7049;49.444;8.522;2023-02-02T20:14:39;79293.59;;;-3.47;87.45
13954;BME280;7049;49.444;8.522;2023-02-02T20:19:43;79295.66;;;-3.47;87.69
13954;BME280;7049;49.444;8.522;2023-02-02T20:24:47;79312.41;;;-3.47;88.17
13954;BME280;7049;49.444;8.522;2023-02-02T20:29:50;79316.59;;;-3.47;88.02
13954;BME280;7049;49.444;8.522;2023-02-02T20:34:55;79316.59;;;-3.47;88.00
13954;BME280;7049;49.444;8.522;2023-02-02T20:40:00;79320.78;;;-3.47;88.75
13954;BME280;7049;49.444;8.522;2023-02-02T20:45:02;79329.16;;;-3.47;88.47
13954;BME280;7049;49.444;8.522;2023-02-02T20:50:05;79324.97;;;-3.47;87.83
13954;BME280;7049;49.444;8.522;2023-02-02T20:55:09;79318.69;;;-3.47;87.05
13954;BME280;7049;49.444;8.522;2023-02-02T21:00:14;79322.88;;;-3.47;87.22
13954;BME280;7049;49.444;8.522;2023-02-02T21:05:17;79322.88;;;-3.47;87.29
13954;BME280;7049;49.444;8.522;2023-02-02T21:10:20;79327.06;;;-3.47;87.19
13954;BME280;7049;49.444;8.522;2023-02-02T21:15:21;79329.16;;;-3.47;87.27
13954;BME280;7049;49.444;8.522;2023-02-02T21:20:24;79327.06;;;-3.47;87.29
13954;BME280;7049;49.444;8.522;2023-02-02T21:25:27;79327.06;;;-3.47;86.68
13954;BME280;7049;49.444;8.522;2023-02-02T21:30:28;79339.63;;;-3.47;87.26
13954;BME280;7049;49.444;8.522;2023-02-02T21:35:31;79341.72;;;-3.47;87.11
13954;BME280;7049;49.444;8.522;2023-02-02T21:40:34;79333.34;;;-3.47;86.86
13954;BME280;7049;49.444;8.522;2023-02-02T21:45:36;79333.34;;;-3.47;87.14
13954;BME280;7049;49.444;8.522;2023-02-02T21:50:39;79333.34;;;-3.47;86.93
13954;BME280;7049;49.444;8.522;2023-02-02T21:55:44;79322.88;;;-3.47;87.10
13954;BME280;7049;49.444;8.522;2023-02-02T22:00:45;79324.97;;;-3.47;87.08
13954;BME280;7049;49.444;8.522;2023-02-02T22:05:47;79339.63;;;-3.47;87.40
13954;BME280;7049;49.444;8.522;2023-02-02T22:10:50;79324.97;;;-3.47;87.58
13954;BME280;7049;49.444;8.522;2023-02-02T22:15:51;79327.06;;;-3.47;87.16
13954;BME280;7049;49.444;8.522;2023-02-02T22:20:53;79316.59;;;-3.47;86.75
13954;BME280;7049;49.444;8.522;2023-02-02T22:25:57;79327.06;;;-3.47;87.62
13954;BME280;7049;49.444;8.522;2023-02-02T22:30:58;79322.88;;;-3.47;87.92
13954;BME280;7049;49.444;8.522;2023-02-02T22:36:00;79314.50;;;-3.47;87.75
13954;BME280;7049;49.444;8.522;2023-02-02T22:41:03;79320.78;;;-3.47;88.48
13954;BME280;7049;49.444;8.522;2023-02-02T22:46:05;79324.97;;;-3.47;88.71
13954;BME280;7049;49.444;8.522;2023-02-02T22:51:06;79320.78;;;-3.47;88.62
13954;BME280;7049;49.444;8.522;2023-02-02T22:56:09;79322.88;;;-3.47;88.55
13954;BME280;7049;49.444;8.522;2023-02-02T23:01:11;79324.97;;;-3.47;88.67
13954;BME280;7049;49.444;8.522;2023-02-02T23:06:12;79329.16;;;-3.47;88.91
13954;BME280;7049;49.444;8.522;2023-02-02T23:11:15;79337.53;;;-3.47;89.15
13954;BME280;7049;49.444;8.522;2023-02-02T23:16:17;79339.63;;;-3.47;89.64
13954;BME280;7049;49.444;8.522;2023-02-02T23:21:18;79337.53;;;-3.47;89.71
13954;BME280;7049;49.444;8.522;2023-02-02T23:26:21;79348.00;;;-3.47;89.80
13954;BME280;7049;49.444;8.522;2023-02-02T23:31:23;79337.53;;;-3.47;89.83
13954;BME280;7049;49.444;8.522;2023-02-02T23:36:25;79337.53;;;-3.47;90.03
13954;BME280;7049;49.444;8.522;2023-02-02T23:41:28;79335.44;;;-3.47;89.84
13954;BME280;7049;49.444;8.522;2023-02-02T23:46:29;79335.44;;;-3.47;89.87
13954;BME280;7049;49.444;8.522;2023-02-02T23:51:31;79320.78;;;-3.47;89.66
13954;BME280;7049;49.444;8.522;2023-02-02T23:56:34;79316.59;;;-3.47;89.97
